createdAt,value
2018-09-06T00:00:05.310Z,70.76
2018-09-06T00:02:32.994Z,70.59
2018-09-06T00:05:00.726Z,69.74
2018-09-06T00:07:28.508Z,69.96
2018-09-06T00:09:56.211Z,72.33
2018-09-06T00:12:23.914Z,73.51
2018-09-06T00:14:51.616Z,72.24
2018-09-06T00:17:19.300Z,72.36
2018-09-06T00:19:47.023Z,72.07
2018-09-06T00:22:16.391Z,71.41
2018-09-06T00:24:44.076Z,71.07
2018-09-06T00:27:11.791Z,71.33
2018-09-06T00:29:39.482Z,70.40
2018-09-06T00:32:07.183Z,70.30
2018-09-06T00:34:36.466Z,69.74
2018-09-06T00:37:04.225Z,70.69
2018-09-06T00:39:31.887Z,71.44
2018-09-06T00:41:59.542Z,69.97
2018-09-06T00:44:27.275Z,70.78
2018-09-06T00:46:55.040Z,71.65
2018-09-06T00:49:22.781Z,71.09
2018-09-06T00:51:50.485Z,71.69
2018-09-06T00:54:18.225Z,72.09
2018-09-06T00:56:45.909Z,71.48
2018-09-06T00:59:13.724Z,71.79
2018-09-06T01:01:41.381Z,71.10
2018-09-06T01:04:09.065Z,71.43
2018-09-06T01:06:36.745Z,70.84
2018-09-06T01:09:05.508Z,69.96
2018-09-06T01:11:33.187Z,68.90
2018-09-06T01:14:00.883Z,68.12
2018-09-06T01:16:28.549Z,68.85
2018-09-06T01:18:56.230Z,69.25
2018-09-06T01:21:23.938Z,68.85
2018-09-06T01:23:51.599Z,68.26
2018-09-06T01:26:19.285Z,69.40
2018-09-06T01:28:47.026Z,69.95
2018-09-06T01:31:14.695Z,69.64
2018-09-06T01:33:42.362Z,70.82
2018-09-06T01:36:15.906Z,70.51
2018-09-06T01:38:43.567Z,69.31
2018-09-06T01:41:11.258Z,69.69
2018-09-06T01:43:38.938Z,69.62
2018-09-06T01:46:06.597Z,69.57
2018-09-06T01:48:34.258Z,69.00
2018-09-06T01:51:01.954Z,69.42
2018-09-06T01:53:29.657Z,69.27
2018-09-06T01:55:57.729Z,69.93
2018-09-06T01:58:25.533Z,69.14
2018-09-06T02:00:53.206Z,69.04
2018-09-06T02:03:20.897Z,69.47
2018-09-06T02:05:48.626Z,69.25
2018-09-06T02:08:16.286Z,69.08
2018-09-06T02:10:43.967Z,68.59
2018-09-06T02:13:11.651Z,69.43
2018-09-06T02:15:39.314Z,69.52
2018-09-06T02:18:06.964Z,70.00
2018-09-06T02:20:34.693Z,71.53
2018-09-06T02:23:02.353Z,70.63
2018-09-06T02:25:30.094Z,70.51
2018-09-06T02:27:57.827Z,70.47
2018-09-06T02:30:25.547Z,70.21
2018-09-06T02:32:53.264Z,70.36
2018-09-06T02:35:20.970Z,70.63
2018-09-06T02:37:48.654Z,71.08
2018-09-06T02:40:21.926Z,71.66
2018-09-06T02:42:49.594Z,71.89
2018-09-06T02:45:17.310Z,72.95
2018-09-06T02:47:50.613Z,72.55
2018-09-06T02:50:23.782Z,72.15
2018-09-06T02:52:52.293Z,72.04
2018-09-06T02:55:20.043Z,71.55
2018-09-06T02:57:48.301Z,72.65
2018-09-06T03:00:18.861Z,72.45
2018-09-06T03:02:46.550Z,71.77
2018-09-06T03:05:14.218Z,71.21
2018-09-06T03:07:41.908Z,71.13
2018-09-06T03:10:09.593Z,71.34
2018-09-06T03:12:37.265Z,71.65
2018-09-06T03:15:04.998Z,71.38
2018-09-06T03:17:32.662Z,71.95
2018-09-06T03:20:00.363Z,71.77
2018-09-06T03:22:28.069Z,72.39
2018-09-06T03:24:55.721Z,72.57
2018-09-06T03:27:23.404Z,72.08
2018-09-06T03:29:51.106Z,73.38
2018-09-06T03:32:18.822Z,74.51
2018-09-06T03:34:46.497Z,73.83
2018-09-06T03:37:14.194Z,74.40
2018-09-06T03:39:41.876Z,73.33
2018-09-06T03:42:09.537Z,74.35
2018-09-06T03:44:37.241Z,73.69
2018-09-06T03:47:04.905Z,73.34
2018-09-06T03:49:32.582Z,73.82
2018-09-06T03:52:00.393Z,73.15
2018-09-06T03:54:28.058Z,72.23
2018-09-06T03:56:55.974Z,71.99
2018-09-06T03:59:23.677Z,71.71
2018-09-06T04:01:51.386Z,71.09
2018-09-06T04:04:19.152Z,70.88
2018-09-06T04:06:46.865Z,71.07
2018-09-06T04:09:14.565Z,71.31
2018-09-06T04:11:42.229Z,70.34
2018-09-06T04:14:09.933Z,70.98
2018-09-06T04:16:37.778Z,70.49
2018-09-06T04:19:05.837Z,70.37
2018-09-06T04:21:33.562Z,70.06
2018-09-06T04:24:01.312Z,69.56
2018-09-06T04:26:28.981Z,66.57
2018-09-06T04:28:56.690Z,65.16
2018-09-06T04:31:24.403Z,64.09
2018-09-06T04:33:52.135Z,64.53
2018-09-06T04:36:19.951Z,61.71
2018-09-06T04:38:47.525Z,62.24
2018-09-06T04:41:15.213Z,61.42
2018-09-06T04:43:43.063Z,63.21
2018-09-06T04:46:10.730Z,63.63
2018-09-06T04:48:38.469Z,61.72
2018-09-06T04:51:06.245Z,62.04
2018-09-06T04:53:33.993Z,61.97
2018-09-06T04:56:01.658Z,62.79
2018-09-06T04:58:29.458Z,60.47
2018-09-06T05:00:57.078Z,58.50
2018-09-06T05:03:24.742Z,54.77
2018-09-06T05:05:52.446Z,56.55
2018-09-06T05:08:20.119Z,58.81
2018-09-06T05:10:47.790Z,61.26
2018-09-06T05:13:15.522Z,62.01
2018-09-06T05:15:43.337Z,61.01
2018-09-06T05:18:11.110Z,58.90
2018-09-06T05:20:38.846Z,56.67
2018-09-06T05:23:06.531Z,53.88
2018-09-06T05:25:34.670Z,55.36
2018-09-06T05:28:02.721Z,52.22
2018-09-06T05:30:30.450Z,50.07
2018-09-06T05:32:58.114Z,50.29
2018-09-06T05:35:25.822Z,55.19
2018-09-06T05:37:53.490Z,59.09
2018-09-06T05:40:21.175Z,61.29
2018-09-06T05:42:48.882Z,60.89
2018-09-06T05:45:16.537Z,60.50
2018-09-06T05:47:48.690Z,61.41
2018-09-06T05:50:16.363Z,63.06
2018-09-06T05:52:44.031Z,64.02
2018-09-06T05:55:11.721Z,65.94
2018-09-06T05:57:39.410Z,66.19
2018-09-06T06:01:10.203Z,64.57
2018-09-06T06:03:37.886Z,65.15
2018-09-06T06:06:05.563Z,67.65
2018-09-06T06:08:40.001Z,66.38
2018-09-06T06:11:07.742Z,67.20
2018-09-06T06:13:35.436Z,65.92
2018-09-06T06:16:03.189Z,66.37
2018-09-06T06:18:30.829Z,67.32
2018-09-06T06:20:58.528Z,67.16
2018-09-06T06:23:26.261Z,66.84
2018-09-06T06:25:54.176Z,65.81
2018-09-06T06:28:21.904Z,64.45
2018-09-06T06:30:49.598Z,62.64
2018-09-06T06:33:17.273Z,61.32
2018-09-06T06:35:44.962Z,61.29
2018-09-06T06:38:12.703Z,59.51
2018-09-06T06:40:40.424Z,58.43
2018-09-06T06:43:08.092Z,57.65
2018-09-06T06:45:35.769Z,55.64
2018-09-06T06:48:03.442Z,52.63
2018-09-06T06:50:31.382Z,56.89
2018-09-06T06:52:58.968Z,56.54
2018-09-06T06:55:26.662Z,54.00
2018-09-06T06:57:54.340Z,57.40
2018-09-06T07:00:22.070Z,55.69
2018-09-06T07:02:50.666Z,58.28
2018-09-06T07:05:18.375Z,57.83
2018-09-06T07:07:46.115Z,56.88
2018-09-06T07:10:13.804Z,60.24
2018-09-06T07:12:41.495Z,60.31
2018-09-06T07:15:09.257Z,58.33
2018-09-06T07:17:37.032Z,57.19
2018-09-06T07:20:04.830Z,54.34
2018-09-06T07:22:33.212Z,54.68
2018-09-06T07:25:01.193Z,53.40
2018-09-06T07:27:28.970Z,52.78
2018-09-06T07:29:56.756Z,54.15
2018-09-06T07:32:24.469Z,54.47
2018-09-06T07:34:52.175Z,53.75
2018-09-06T07:37:19.903Z,51.25
2018-09-06T07:39:47.573Z,50.88
2018-09-06T07:42:15.240Z,50.49
2018-09-06T07:44:42.945Z,51.27
2018-09-06T07:47:10.630Z,51.78
2018-09-06T07:49:38.301Z,48.91
2018-09-06T07:52:06.279Z,49.10
2018-09-06T07:54:33.979Z,50.55
2018-09-06T07:57:01.659Z,47.95
2018-09-06T07:59:29.384Z,49.12
2018-09-06T08:01:57.046Z,48.86
2018-09-06T08:04:24.749Z,49.03
2018-09-06T08:06:52.535Z,51.03
2018-09-06T08:09:21.208Z,50.63
2018-09-06T08:11:49.014Z,50.42
2018-09-06T08:14:16.938Z,49.68
2018-09-06T08:16:44.730Z,50.08
2018-09-06T08:19:12.523Z,49.71
2018-09-06T08:21:40.248Z,48.80
2018-09-06T08:24:08.018Z,50.73
2018-09-06T08:26:35.753Z,50.96
2018-09-06T08:29:03.524Z,49.42
2018-09-06T08:31:31.330Z,48.67
2018-09-06T08:33:58.941Z,48.86
2018-09-06T08:36:26.703Z,45.86
2018-09-06T08:38:54.462Z,46.03
2018-09-06T08:41:22.162Z,47.58
2018-09-06T08:43:49.938Z,45.76
2018-09-06T08:46:17.714Z,46.08
2018-09-06T08:48:46.366Z,45.56
2018-09-06T08:51:14.144Z,46.93
2018-09-06T08:53:41.945Z,48.57
2018-09-06T08:56:09.666Z,47.64
2018-09-06T08:58:37.430Z,49.67
2018-09-06T09:01:10.917Z,52.79
2018-09-06T09:03:38.941Z,50.50
2018-09-06T09:06:07.064Z,47.50
2018-09-06T09:08:34.918Z,47.64
2018-09-06T09:11:02.635Z,48.01
2018-09-06T09:13:30.475Z,45.83
2018-09-06T09:15:58.255Z,47.54
2018-09-06T09:18:26.089Z,46.18
2018-09-06T09:20:53.780Z,44.84
2018-09-06T09:23:21.688Z,43.86
2018-09-06T09:25:49.507Z,44.39
2018-09-06T09:28:17.409Z,44.38
2018-09-06T09:30:45.311Z,43.73
2018-09-06T09:33:13.113Z,42.77
2018-09-06T09:35:40.844Z,42.01
2018-09-06T09:38:09.070Z,45.48
2018-09-06T09:40:36.858Z,42.51
2018-09-06T09:43:04.597Z,44.15
2018-09-06T09:45:32.344Z,45.65
2018-09-06T09:48:00.124Z,43.34
2018-09-06T09:52:55.170Z,42.60
2018-09-06T09:55:22.985Z,42.99
2018-09-06T09:57:50.751Z,44.71
2018-09-06T10:00:23.009Z,43.06
2018-09-06T10:02:56.148Z,43.70
2018-09-06T10:05:29.382Z,47.03
2018-09-06T10:07:58.062Z,44.94
2018-09-06T10:10:26.361Z,46.34
2018-09-06T10:12:54.112Z,42.35
2018-09-06T10:15:21.882Z,40.99
2018-09-06T10:17:49.595Z,43.73
2018-09-06T10:20:17.454Z,43.74
2018-09-06T10:22:45.281Z,41.68
2018-09-06T10:25:13.123Z,42.95
2018-09-06T10:27:41.087Z,43.41
2018-09-06T10:30:08.878Z,44.20
2018-09-06T10:32:36.677Z,44.53
2018-09-06T10:35:04.553Z,42.91
2018-09-06T10:37:32.309Z,42.51
2018-09-06T10:40:00.119Z,43.54
2018-09-06T10:42:27.993Z,40.86
2018-09-06T10:44:55.749Z,39.09
2018-09-06T10:47:23.593Z,38.81
2018-09-06T10:49:51.369Z,40.27
2018-09-06T10:52:19.220Z,40.25
2018-09-06T10:54:46.963Z,38.90
2018-09-06T10:57:14.870Z,39.47
2018-09-06T10:59:42.661Z,37.55
2018-09-06T11:02:10.531Z,37.24
2018-09-06T11:04:38.379Z,38.16
2018-09-06T11:07:06.286Z,36.19
2018-09-06T11:09:34.068Z,36.79
2018-09-06T11:12:01.745Z,34.27
2018-09-06T11:14:29.471Z,37.80
2018-09-06T11:16:57.178Z,37.04
2018-09-06T11:19:24.896Z,37.52
2018-09-06T11:21:52.727Z,38.42
2018-09-06T11:24:20.331Z,39.42
2018-09-06T11:26:48.078Z,38.01
2018-09-06T11:29:15.816Z,38.58
2018-09-06T11:31:43.573Z,38.07
2018-09-06T11:34:11.350Z,37.88
2018-09-06T11:36:39.002Z,34.91
2018-09-06T11:39:09.337Z,37.34
2018-09-06T11:41:37.428Z,36.94
2018-09-06T11:44:05.659Z,35.81
2018-09-06T11:46:33.483Z,37.58
2018-09-06T11:49:01.233Z,36.88
2018-09-06T11:51:29.050Z,34.69
2018-09-06T11:53:56.774Z,36.82
2018-09-06T11:56:24.562Z,34.83
2018-09-06T11:58:52.273Z,36.61
2018-09-06T12:01:20.072Z,37.11
2018-09-06T12:03:47.974Z,36.38
2018-09-06T12:06:15.772Z,37.44
2018-09-06T12:08:43.494Z,36.86
2018-09-06T12:11:11.278Z,37.24
2018-09-06T12:13:39.038Z,36.61
2018-09-06T12:16:07.484Z,38.22
2018-09-06T12:18:35.242Z,37.45
2018-09-06T12:21:03.051Z,35.50
2018-09-06T12:23:30.853Z,34.69
2018-09-06T12:25:58.641Z,36.60
2018-09-06T12:28:26.848Z,40.36
2018-09-06T12:30:54.566Z,38.92
2018-09-06T12:33:23.137Z,39.57
2018-09-06T12:35:51.125Z,37.53
2018-09-06T12:38:18.933Z,37.70
2018-09-06T12:40:46.752Z,38.59
2018-09-06T12:43:14.502Z,38.93
2018-09-06T12:45:42.253Z,38.40
2018-09-06T12:48:10.090Z,39.72
2018-09-06T12:50:37.762Z,38.66
2018-09-06T12:53:05.682Z,38.59
2018-09-06T12:55:33.435Z,38.63
2018-09-06T12:58:01.259Z,37.78
2018-09-06T13:00:29.142Z,39.39
2018-09-06T13:02:56.914Z,38.47
2018-09-06T13:05:24.683Z,37.01
2018-09-06T13:07:52.393Z,38.64
2018-09-06T13:10:20.176Z,38.84
2018-09-06T13:12:47.991Z,39.72
2018-09-06T13:15:16.065Z,39.99
2018-09-06T13:17:43.865Z,40.06
2018-09-06T13:20:11.557Z,39.97
2018-09-06T13:22:39.354Z,40.64
2018-09-06T13:25:07.153Z,37.78
2018-09-06T13:27:34.881Z,37.29
2018-09-06T13:30:02.618Z,38.19
2018-09-06T13:32:30.415Z,39.05
2018-09-06T13:34:58.101Z,38.40
2018-09-06T13:37:25.848Z,37.68
2018-09-06T13:39:53.616Z,35.41
2018-09-06T13:42:21.306Z,36.89
2018-09-06T13:44:49.042Z,35.70
2018-09-06T13:47:16.762Z,34.91
2018-09-06T13:49:44.768Z,37.77
2018-09-06T13:52:12.469Z,36.90
2018-09-06T13:54:40.205Z,36.34
2018-09-06T13:57:07.942Z,35.64
2018-09-06T13:59:35.682Z,33.13
2018-09-06T14:02:03.493Z,32.79
2018-09-06T14:04:31.209Z,31.29
2018-09-06T14:06:58.943Z,33.60
2018-09-06T14:09:27.030Z,34.02
2018-09-06T14:11:54.785Z,32.98
2018-09-06T14:14:22.465Z,32.75
2018-09-06T14:16:50.288Z,32.43
2018-09-06T14:19:17.981Z,32.30
2018-09-06T14:21:45.697Z,31.91
2018-09-06T14:24:13.513Z,32.85
2018-09-06T14:26:41.200Z,32.61
2018-09-06T14:29:09.001Z,33.64
2018-09-06T14:31:36.723Z,34.75
2018-09-06T14:34:04.839Z,34.58
2018-09-06T14:36:32.616Z,35.48
2018-09-06T14:39:01.223Z,34.08
2018-09-06T14:41:29.058Z,33.74
2018-09-06T14:43:56.774Z,32.80
2018-09-06T14:46:24.575Z,33.05
2018-09-06T14:48:52.391Z,33.11
2018-09-06T14:51:20.109Z,34.82
2018-09-06T14:53:47.902Z,33.32
2018-09-06T14:56:15.634Z,34.57
2018-09-06T14:58:43.335Z,34.67
2018-09-06T15:01:11.087Z,35.79
2018-09-06T15:03:38.773Z,35.01
2018-09-06T15:06:06.473Z,35.58
2018-09-06T15:08:34.212Z,36.55
2018-09-06T15:11:01.885Z,36.68
2018-09-06T15:13:29.579Z,36.53
2018-09-06T15:15:57.331Z,36.26
2018-09-06T15:18:25.082Z,38.47
2018-09-06T15:20:52.776Z,37.85
2018-09-06T15:23:20.578Z,43.15
2018-09-06T15:25:48.636Z,46.70
2018-09-06T15:28:16.408Z,49.54
2018-09-06T15:30:44.168Z,50.18
2018-09-06T15:33:11.893Z,48.40
2018-09-06T15:35:39.645Z,48.70
2018-09-06T15:38:07.505Z,48.77
2018-09-06T15:40:35.294Z,48.34
2018-09-06T15:43:03.030Z,49.30
2018-09-06T15:45:30.813Z,47.97
2018-09-06T15:47:58.544Z,47.24
2018-09-06T15:50:26.255Z,47.71
2018-09-06T15:52:54.031Z,48.31
2018-09-06T15:55:21.724Z,48.38
2018-09-06T15:57:49.489Z,49.30
2018-09-06T16:00:17.226Z,48.64
2018-09-06T16:02:44.971Z,47.72
2018-09-06T16:05:12.769Z,48.54
2018-09-06T16:07:40.567Z,49.44
2018-09-06T16:10:08.389Z,49.07
2018-09-06T16:12:36.175Z,49.15
2018-09-06T16:15:04.000Z,48.69
2018-09-06T16:17:31.726Z,49.58
2018-09-06T16:19:59.590Z,48.65
2018-09-06T16:22:27.658Z,48.09
2018-09-06T16:24:55.370Z,51.67
2018-09-06T16:27:23.101Z,53.12
2018-09-06T16:29:50.909Z,53.59
2018-09-06T16:32:18.644Z,54.17
2018-09-06T16:34:46.471Z,55.66
2018-09-06T16:37:14.290Z,55.24
2018-09-06T16:39:41.934Z,55.93
2018-09-06T16:42:09.665Z,58.66
2018-09-06T16:44:37.415Z,62.85
2018-09-06T16:47:05.166Z,66.87
2018-09-06T16:49:32.934Z,67.62
2018-09-06T16:52:00.653Z,64.01
2018-09-06T16:54:28.350Z,67.10
2018-09-06T16:56:56.062Z,66.60
2018-09-06T16:59:23.805Z,66.04
2018-09-06T17:01:51.498Z,67.24
2018-09-06T17:04:19.258Z,66.79
2018-09-06T17:06:47.019Z,67.29
2018-09-06T17:09:14.790Z,66.97
2018-09-06T17:11:42.486Z,66.82
2018-09-06T17:14:10.232Z,67.62
2018-09-06T17:16:37.941Z,68.99
2018-09-06T17:19:05.737Z,65.67
2018-09-06T17:21:33.508Z,66.88
2018-09-06T17:24:01.241Z,68.15
2018-09-06T17:26:28.969Z,64.61
2018-09-06T17:28:56.794Z,63.59
2018-09-06T17:31:24.474Z,65.79
2018-09-06T17:33:52.216Z,67.05
2018-09-06T17:36:19.962Z,66.29
2018-09-06T17:38:47.765Z,66.00
2018-09-06T17:41:15.425Z,66.19
2018-09-06T17:43:44.321Z,67.52
2018-09-06T17:46:12.137Z,68.21
2018-09-06T17:48:39.920Z,70.12
2018-09-06T17:51:07.713Z,70.66
2018-09-06T17:53:35.492Z,70.57
2018-09-06T17:56:03.201Z,71.45
2018-09-06T17:58:30.971Z,73.20
2018-09-06T18:01:41.084Z,72.31
2018-09-06T18:04:08.849Z,71.84
2018-09-06T18:06:36.578Z,71.63
2018-09-06T18:09:08.262Z,72.28
2018-09-06T18:11:36.150Z,71.46
2018-09-06T18:14:03.998Z,71.06
2018-09-06T18:16:31.794Z,73.79
2018-09-06T18:18:59.544Z,70.92
2018-09-06T18:21:27.276Z,70.60
2018-09-06T18:23:55.838Z,71.08
2018-09-06T18:31:20.452Z,72.29
2018-09-06T18:33:48.212Z,72.24
2018-09-06T18:36:15.985Z,72.60
2018-09-06T18:38:44.507Z,72.93
2018-09-06T18:41:12.228Z,72.49
2018-09-06T18:43:39.993Z,72.85
2018-09-06T18:46:07.817Z,73.33
2018-09-06T18:48:35.493Z,72.55
2018-09-06T18:51:03.245Z,72.19
2018-09-06T18:53:31.105Z,70.42
2018-09-06T18:55:58.865Z,70.47
2018-09-06T18:58:26.619Z,69.33
2018-09-06T19:00:54.377Z,69.53
2018-09-06T19:03:22.070Z,69.80
2018-09-06T19:05:49.802Z,70.34
2018-09-06T19:08:17.502Z,70.20
2018-09-06T19:10:45.174Z,70.72
2018-09-06T19:13:12.885Z,70.76
2018-09-06T19:15:40.604Z,70.60
2018-09-06T19:18:08.429Z,70.93
2018-09-06T19:20:36.140Z,69.40
2018-09-06T19:23:03.916Z,69.77
2018-09-06T19:25:31.607Z,69.23
2018-09-06T19:27:59.316Z,68.58
2018-09-06T19:30:27.185Z,69.21
2018-09-06T19:32:54.918Z,69.53
2018-09-06T19:35:22.653Z,69.71
2018-09-06T19:37:50.401Z,68.27
2018-09-06T19:40:18.150Z,67.99
2018-09-06T19:42:45.893Z,68.35
2018-09-06T19:45:13.617Z,67.85
2018-09-06T19:47:41.346Z,67.06
2018-09-06T19:50:09.074Z,66.84
2018-09-06T19:52:36.833Z,66.22
2018-09-06T19:55:04.622Z,65.37
2018-09-06T19:57:32.642Z,64.15
2018-09-06T20:00:00.470Z,65.16
2018-09-06T20:02:28.233Z,67.28
2018-09-06T20:04:56.567Z,69.79
2018-09-06T20:07:24.313Z,72.28
2018-09-06T20:09:52.101Z,73.29
2018-09-06T20:12:19.844Z,72.80
2018-09-06T20:14:47.550Z,73.98
2018-09-06T20:17:15.300Z,74.70
2018-09-06T20:19:43.021Z,74.34
2018-09-06T20:22:10.764Z,75.36
2018-09-06T20:24:38.564Z,75.28
2018-09-06T20:27:06.237Z,75.22
2018-09-06T20:29:33.990Z,75.36
2018-09-06T20:32:01.697Z,75.98
2018-09-06T20:34:29.681Z,76.64
2018-09-06T20:36:57.410Z,75.55
2018-09-06T20:39:25.177Z,75.44
2018-09-06T20:41:52.929Z,75.54
2018-09-06T20:44:20.711Z,73.88
2018-09-06T20:46:48.405Z,70.69
2018-09-06T20:49:16.098Z,70.06
2018-09-06T20:51:43.793Z,71.18
2018-09-06T20:54:11.565Z,72.62
2018-09-06T20:56:39.349Z,72.95
2018-09-06T20:59:07.163Z,73.92
2018-09-06T21:01:34.892Z,73.31
2018-09-06T21:04:02.661Z,73.56
2018-09-06T21:06:30.382Z,73.71
2018-09-06T21:08:58.121Z,74.06
2018-09-06T21:11:25.893Z,73.79
2018-09-06T21:13:53.590Z,74.30
2018-09-06T21:16:21.374Z,73.37
2018-09-06T21:18:49.052Z,72.59
2018-09-06T21:21:16.753Z,71.90
2018-09-06T21:23:44.470Z,71.86
2018-09-06T21:26:12.161Z,72.55
2018-09-06T21:28:39.934Z,72.54
2018-09-06T21:31:07.732Z,71.36
2018-09-06T21:33:35.433Z,71.49
2018-09-06T21:36:03.129Z,70.17
2018-09-06T21:38:30.797Z,69.24
2018-09-06T21:40:58.462Z,70.43
2018-09-06T21:43:26.261Z,69.89
2018-09-06T21:45:53.964Z,69.99
2018-09-06T21:48:21.684Z,69.47
2018-09-06T21:50:49.396Z,69.95
2018-09-06T21:53:17.071Z,69.98
2018-09-06T21:55:44.777Z,68.32
2018-09-06T21:58:12.477Z,67.19
2018-09-06T22:00:40.177Z,67.63
2018-09-06T22:03:13.351Z,66.23
2018-09-06T22:05:41.047Z,65.83
2018-09-06T22:08:08.725Z,64.95
2018-09-06T22:10:36.488Z,64.20
2018-09-06T22:13:04.180Z,63.46
2018-09-06T22:15:31.901Z,63.78
2018-09-06T22:17:59.604Z,63.16
2018-09-06T22:20:27.258Z,61.96
2018-09-06T22:22:55.077Z,63.00
2018-09-06T22:25:22.782Z,62.29
2018-09-06T22:27:50.482Z,61.39
2018-09-06T22:30:18.216Z,61.26
2018-09-06T22:32:45.949Z,61.76
2018-09-06T22:35:13.612Z,62.13
2018-09-06T22:37:41.289Z,62.09
2018-09-06T22:40:09.019Z,62.51
2018-09-06T22:42:36.698Z,62.45
2018-09-06T22:45:04.414Z,61.94
2018-09-06T22:47:32.082Z,62.88
2018-09-06T22:49:59.763Z,62.37
2018-09-06T22:52:27.721Z,63.57
2018-09-06T22:54:55.414Z,63.34
2018-09-06T22:57:23.127Z,63.35
2018-09-06T22:59:50.798Z,63.33
2018-09-06T23:02:35.319Z,62.94
2018-09-06T23:05:04.203Z,63.34
2018-09-06T23:07:31.910Z,62.61
2018-09-06T23:09:59.629Z,62.30
2018-09-06T23:12:29.029Z,62.51
2018-09-06T23:14:57.081Z,63.17
2018-09-06T23:17:33.594Z,62.72
2018-09-06T23:20:01.272Z,63.74
2018-09-06T23:22:38.926Z,63.64
2018-09-06T23:25:07.981Z,62.97
2018-09-06T23:27:38.258Z,62.54
2018-09-06T23:30:07.545Z,62.77
2018-09-06T23:32:35.337Z,63.13
2018-09-06T23:35:04.018Z,62.49
2018-09-06T23:37:31.700Z,63.72
2018-09-06T23:42:42.634Z,65.02
2018-09-06T23:45:16.532Z,65.66
2018-09-06T23:47:45.155Z,66.35
2018-09-06T23:50:21.246Z,65.57
2018-09-06T23:52:49.342Z,66.10
2018-09-06T23:55:17.971Z,66.88
2018-09-06T23:57:46.867Z,66.28
